Time;durP1;ratioP1;P1;durP2;ratioP2;P2;SDS_P1;SDS_P2;PMS_P1;PMS_P2;Temp;Humidity;BMP_temperature;BMP_pressure;BME280_temperature;BME280_humidity;BME280_pressure;Samples;Min_cycle;Max_cycle;Signal;HPM_P1;HPM_P2
2023/01/29 00:01:44;;;;;;;16.63;8.73;;;0.10;99.90;;;;;;4919714;29;20066;-72
2023/01/29 00:04:10;;;;;;;13.52;7.82;;;0.10;99.90;;;;;;4902636;29;20514;-72
2023/01/29 00:06:35;;;;;;;14.32;8.75;;;0.10;99.90;;;;;;4919248;29;20398;-72
2023/01/29 00:09:01;;;;;;;16.00;8.75;;;0.00;99.90;;;;;;4919321;29;20107;-72
2023/01/29 00:11:27;;;;;;;14.00;7.88;;;0.00;99.90;;;;;;4919263;29;20036;-70
2023/01/29 00:13:53;;;;;;;15.77;7.70;;;0.00;99.90;;;;;;4919251;29;20039;-69
2023/01/29 00:16:18;;;;;;;14.25;7.47;;;0.00;99.90;;;;;;4918342;29;20594;-71
2023/01/29 00:18:44;;;;;;;15.60;7.65;;;0.00;99.90;;;;;;4918822;29;20033;-72
2023/01/29 00:21:19;;;;;;;13.07;7.82;;;0.00;99.90;;;;;;4918748;29;20031;-71
2023/01/29 00:23:45;;;;;;;14.55;8.48;;;0.00;99.90;;;;;;4918797;29;20051;-71
2023/01/29 00:26:12;;;;;;;13.32;7.20;;;0.00;99.90;;;;;;4918976;29;20028;-71
2023/01/29 00:28:38;;;;;;;13.88;7.18;;;0.00;99.90;;;;;;4919067;29;20060;-70
2023/01/29 00:31:17;;;;;;;15.55;7.85;;;0.00;99.90;;;;;;4902093;29;20071;-71
2023/01/29 00:33:43;;;;;;;12.70;7.53;;;0.00;99.90;;;;;;4902395;29;20032;-70
2023/01/29 00:36:11;;;;;;;12.32;6.97;;;0.00;99.90;;;;;;4901835;29;20028;-71
2023/01/29 00:38:38;;;;;;;12.57;7.53;;;0.00;99.90;;;;;;4918887;29;20032;-71
2023/01/29 00:46:40;;;;;;;12.63;6.57;;;0.00;99.90;;;;;;4918590;29;20047;-71
2023/01/29 00:49:06;;;;;;;14.77;6.93;;;0.00;99.90;;;;;;4918573;29;20028;-71
2023/01/29 00:51:33;;;;;;;12.07;6.97;;;-0.10;99.90;;;;;;4918527;29;20110;-71
2023/01/29 00:54:01;;;;;;;10.68;6.63;;;-0.10;99.90;;;;;;4918679;29;20036;-71
2023/01/29 00:56:28;;;;;;;11.23;6.55;;;-0.10;99.90;;;;;;4918432;29;20036;-70
2023/01/29 00:58:54;;;;;;;12.13;6.70;;;-0.10;99.90;;;;;;4918407;29;20103;-71
2023/01/29 01:03:04;;;;;;;15.25;7.10;;;-0.10;99.90;;;;;;4918057;29;20520;-71
2023/01/29 01:04:08;;;;;;;12.00;6.75;;;-0.10;99.90;;;;;;4917557;29;20044;-71
2023/01/29 01:06:39;;;;;;;14.63;6.95;;;-0.10;99.90;;;;;;4918218;29;20059;-71
2023/01/29 01:11:50;;;;;;;11.07;6.35;;;-0.10;99.90;;;;;;4918287;29;20104;-71
2023/01/29 01:14:17;;;;;;;13.00;6.82;;;-0.10;99.90;;;;;;4901371;29;20032;-70
2023/01/29 01:16:45;;;;;;;10.52;6.25;;;-0.10;99.90;;;;;;4918400;29;20028;-70
2023/01/29 01:19:11;;;;;;;8.23;5.17;;;-0.10;99.90;;;;;;4901074;29;20043;-70
2023/01/29 01:21:37;;;;;;;13.52;6.30;;;-0.20;99.90;;;;;;4918016;29;20458;-70
2023/01/29 01:24:04;;;;;;;16.08;7.18;;;-0.20;99.90;;;;;;4917796;29;20112;-70
2023/01/29 01:26:31;;;;;;;13.82;6.43;;;-0.20;99.90;;;;;;4900946;29;20063;-70
2023/01/29 01:28:57;;;;;;;11.93;6.68;;;-0.20;99.90;;;;;;4917714;29;20062;-70
2023/01/29 01:31:23;;;;;;;12.05;6.05;;;-0.30;99.90;;;;;;4918279;29;20067;-70
2023/01/29 01:33:50;;;;;;;12.80;7.05;;;-0.20;99.90;;;;;;4901274;29;20063;-70
2023/01/29 01:36:17;;;;;;;11.93;6.00;;;-0.20;99.90;;;;;;4917922;29;20406;-70
2023/01/29 01:38:44;;;;;;;13.27;6.88;;;-0.30;99.90;;;;;;4900772;29;20086;-70
2023/01/29 01:41:20;;;;;;;11.70;6.10;;;-0.30;99.90;;;;;;4917737;29;20418;-70
2023/01/29 01:44:00;;;;;;;11.70;6.50;;;-0.30;99.90;;;;;;4901546;29;20028;-70
2023/01/29 01:46:32;;;;;;;11.93;6.65;;;-0.30;99.90;;;;;;4917735;29;20028;-70
2023/01/29 01:49:07;;;;;;;11.90;6.50;;;-0.30;99.90;;;;;;4917725;29;20032;-70
2023/01/29 01:51:36;;;;;;;12.45;6.65;;;-0.30;99.90;;;;;;4900728;29;20111;-70
2023/01/29 01:54:21;;;;;;;10.60;6.18;;;-0.30;99.90;;;;;;4917639;29;20037;-70
2023/01/29 01:56:54;;;;;;;9.55;5.60;;;-0.30;99.90;;;;;;4900608;29;20029;-70
2023/01/29 01:59:21;;;;;;;12.27;6.05;;;-0.30;99.90;;;;;;4900560;29;20035;-70
2023/01/29 02:01:51;;;;;;;11.70;6.68;;;-0.30;99.90;;;;;;4917295;29;20024;-70
2023/01/29 02:10:11;;;;;;;10.15;5.68;;;-0.40;99.90;;;;;;4917551;29;20489;-71
2023/01/29 02:12:37;;;;;;;11.55;6.10;;;-0.40;99.90;;;;;;4917290;29;20027;-70
2023/01/29 02:15:04;;;;;;;9.23;5.97;;;-0.40;99.90;;;;;;4918030;29;20099;-70
2023/01/29 02:17:30;;;;;;;10.77;6.00;;;-0.40;99.90;;;;;;4918247;29;20035;-71
2023/01/29 02:20:14;;;;;;;11.25;6.18;;;-0.40;99.90;;;;;;4920329;29;20032;-71
2023/01/29 02:23:13;;;;;;;11.05;5.60;;;-0.40;99.90;;;;;;4904371;29;20063;-71
2023/01/29 02:26:02;;;;;;;9.90;5.00;;;-0.40;99.90;;;;;;4920734;29;20422;-71
2023/01/29 02:29:21;;;;;;;10.52;5.38;;;-0.50;99.90;;;;;;4876423;29;20040;-70
2023/01/29 02:32:09;;;;;;;9.77;5.80;;;-0.40;99.90;;;;;;4900926;29;20119;-71
2023/01/29 02:37:32;;;;;;;9.52;5.00;;;-0.50;99.90;;;;;;4918145;29;19914;-71
2023/01/29 02:40:22;;;;;;;10.43;6.05;;;-0.20;99.90;;;;;;4902222;29;20175;-71
2023/01/29 02:43:03;;;;;;;11.15;5.53;;;-0.40;99.90;;;;;;4920897;29;20028;-71
2023/01/29 02:45:38;;;;;;;10.68;5.50;;;-0.50;99.90;;;;;;4921443;29;20393;-71
2023/01/29 02:48:04;;;;;;;9.43;5.60;;;-0.50;99.90;;;;;;4921376;29;20032;-71
2023/01/29 02:50:45;;;;;;;11.57;6.60;;;-0.50;99.90;;;;;;4921118;29;20093;-71
2023/01/29 02:53:17;;;;;;;10.75;6.05;;;-0.50;99.90;;;;;;4921664;29;20024;-71
2023/01/29 02:55:54;;;;;;;8.13;5.13;;;-0.60;99.90;;;;;;4922236;29;20099;-71
2023/01/29 02:58:28;;;;;;;10.15;5.57;;;-0.60;99.90;;;;;;4922573;29;20032;-71
2023/01/29 03:00:59;;;;;;;11.90;5.97;;;-0.60;99.90;;;;;;4922517;29;20050;-71
2023/01/29 03:03:35;;;;;;;9.50;5.75;;;-0.60;99.90;;;;;;4904543;29;20052;-71
2023/01/29 03:06:06;;;;;;;9.65;5.93;;;-0.70;99.90;;;;;;4922065;29;20036;-71
2023/01/29 03:08:52;;;;;;;10.32;5.70;;;-0.70;99.90;;;;;;4904759;29;20033;-71
2023/01/29 03:11:19;;;;;;;11.50;5.60;;;-0.70;99.90;;;;;;4921753;29;20032;-71
2023/01/29 03:14:13;;;;;;;9.10;5.35;;;-0.70;99.90;;;;;;4920513;29;20398;-71
2023/01/29 03:16:48;;;;;;;11.77;5.63;;;-0.70;99.90;;;;;;4920169;29;20470;-71
2023/01/29 03:19:28;;;;;;;11.05;6.15;;;-0.70;99.90;;;;;;4903105;29;20061;-71
2023/01/29 03:21:59;;;;;;;10.23;5.85;;;-0.70;99.90;;;;;;4920212;29;20024;-71
2023/01/29 03:33:25;;;;;;;11.57;6.60;;;-0.80;99.90;;;;;;4920055;29;20051;-71
2023/01/29 03:35:59;;;;;;;9.48;6.38;;;-0.80;99.90;;;;;;4920689;29;20035;-71
2023/01/29 03:38:28;;;;;;;13.45;7.53;;;-0.80;99.90;;;;;;4920191;29;20354;-71
2023/01/29 03:41:01;;;;;;;;;;;-0.30;99.90;;;;;;4903535;29;20359;-71
2023/01/29 03:43:54;;;;;;;11.23;6.88;;;-0.80;99.90;;;;;;4919716;29;19919;-71
2023/01/29 03:46:28;;;;;;;14.05;6.90;;;-0.80;99.90;;;;;;4919710;29;20032;-71
2023/01/29 03:48:53;;;;;;;10.25;6.40;;;-0.80;99.90;;;;;;4903127;29;20028;-71
2023/01/29 03:51:31;;;;;;;13.82;7.55;;;-0.80;99.90;;;;;;4919551;29;20354;-71
2023/01/29 03:54:12;;;;;;;11.47;7.63;;;-0.80;99.90;;;;;;4902646;29;20126;-71
2023/01/29 03:56:59;;;;;;;14.48;7.45;;;-0.80;99.90;;;;;;4902560;29;20032;-71
2023/01/29 03:59:34;;;;;;;11.85;7.07;;;-0.80;99.90;;;;;;4919636;29;20031;-71
2023/01/29 04:02:05;;;;;;;12.68;7.47;;;-0.80;99.90;;;;;;4902493;29;20032;-71
2023/01/29 04:04:33;;;;;;;13.00;6.85;;;-0.90;99.90;;;;;;4919783;29;20092;-71
2023/01/29 04:07:15;;;;;;;15.65;7.72;;;-0.90;99.90;;;;;;4902563;29;20040;-71
2023/01/29 04:09:51;;;;;;;12.23;6.72;;;-0.90;99.90;;;;;;4919352;29;20032;-71
2023/01/29 04:12:28;;;;;;;14.40;7.63;;;-0.90;99.90;;;;;;4919345;29;20060;-71
2023/01/29 04:14:55;;;;;;;11.18;6.20;;;-0.90;99.90;;;;;;4919216;29;20068;-71
2023/01/29 04:17:26;;;;;;;12.07;7.03;;;-0.90;99.90;;;;;;4919212;29;20351;-71
2023/01/29 04:19:53;;;;;;;11.80;5.70;;;-0.80;99.90;;;;;;4919454;29;20028;-71
2023/01/29 04:22:36;;;;;;;11.88;6.70;;;-0.90;99.90;;;;;;4902052;29;20054;-71
2023/01/29 04:25:14;;;;;;;11.82;5.60;;;-0.90;99.90;;;;;;4902493;29;20036;-71
2023/01/29 04:28:01;;;;;;;9.73;5.65;;;-1.00;99.90;;;;;;4902048;29;20474;-71
2023/01/29 04:30:47;;;;;;;9.32;5.38;;;-1.00;99.90;;;;;;4902485;29;20463;-71
2023/01/29 04:33:22;;;;;;;11.50;5.18;;;-1.00;99.90;;;;;;4902082;29;20032;-71
2023/01/29 04:36:05;;;;;;;10.38;5.10;;;-1.00;99.90;;;;;;4918873;29;20496;-71
2023/01/29 04:38:49;;;;;;;9.93;5.05;;;-1.00;99.90;;;;;;4918754;29;20454;-71
2023/01/29 04:41:17;;;;;;;7.10;4.60;;;-1.00;99.90;;;;;;4901793;29;20024;-71
2023/01/29 04:43:58;;;;;;;9.88;4.88;;;-0.80;99.90;;;;;;4901968;29;20095;-71
2023/01/29 04:46:40;;;;;;;8.13;5.13;;;-1.10;99.90;;;;;;4919620;29;20084;-71
2023/01/29 04:49:17;;;;;;;7.75;4.65;;;-1.10;99.90;;;;;;4919783;29;20057;-71
2023/01/29 04:52:01;;;;;;;9.90;5.63;;;-1.10;99.90;;;;;;4921618;29;20454;-71
2023/01/29 04:54:45;;;;;;;6.03;3.80;;;-1.10;99.90;;;;;;4902167;29;20051;-70
2023/01/29 04:57:35;;;;;;;9.32;4.63;;;-1.10;99.90;;;;;;4902437;29;20024;-71
2023/01/29 05:00:23;;;;;;;11.05;5.10;;;-1.10;99.90;;;;;;4903871;29;20462;-71
2023/01/29 05:02:49;;;;;;;7.37;4.87;;;-1.10;99.90;;;;;;4902036;29;20055;-71
2023/01/29 05:05:18;;;;;;;8.05;5.32;;;-1.20;99.90;;;;;;4920338;29;20036;-71
2023/01/29 05:07:46;;;;;;;9.55;5.63;;;-1.20;99.90;;;;;;4920268;29;20052;-71
2023/01/29 05:10:14;;;;;;;8.48;5.60;;;-1.30;99.90;;;;;;4919674;29;20036;-71
2023/01/29 05:12:42;;;;;;;8.35;4.93;;;-1.40;99.90;;;;;;4918359;29;20029;-70
2023/01/29 05:15:16;;;;;;;10.37;5.47;;;-1.40;99.90;;;;;;4901276;29;20063;-70
2023/01/29 05:17:42;;;;;;;7.35;4.78;;;-1.40;99.90;;;;;;4918132;29;20028;-71
2023/01/29 05:20:10;;;;;;;9.38;4.97;;;-1.40;99.90;;;;;;4917865;29;20039;-71
2023/01/29 05:22:39;;;;;;;5.70;3.35;;;-1.50;99.90;;;;;;4918232;29;20036;-71
2023/01/29 05:25:29;;;;;;;9.65;5.07;;;-1.50;99.90;;;;;;4900665;29;20119;-71
2023/01/29 05:28:15;;;;;;;7.90;5.15;;;-1.50;99.90;;;;;;4918344;29;20035;-71
2023/01/29 05:30:51;;;;;;;8.02;5.03;;;-1.60;99.90;;;;;;4917986;29;20098;-71
2023/01/29 05:33:19;;;;;;;8.48;5.53;;;-1.60;99.90;;;;;;4918155;29;20028;-71
2023/01/29 05:35:45;;;;;;;10.98;4.95;;;-1.60;99.90;;;;;;4901250;29;20393;-71
2023/01/29 05:38:11;;;;;;;9.43;5.38;;;-1.70;99.90;;;;;;4918006;29;20046;-71
2023/01/29 05:40:37;;;;;;;19.67;5.38;;;-1.70;99.90;;;;;;4917788;29;20034;-71
2023/01/29 05:43:04;;;;;;;8.95;5.10;;;-1.60;99.90;;;;;;4917985;29;20028;-71
2023/01/29 05:45:30;;;;;;;9.90;5.05;;;-1.70;99.90;;;;;;4918059;29;20052;-71
2023/01/29 05:47:57;;;;;;;8.07;4.82;;;-1.70;99.90;;;;;;4917705;29;20024;-71
2023/01/29 05:50:24;;;;;;;9.70;4.95;;;-1.30;99.90;;;;;;4900693;29;20418;-71
2023/01/29 05:52:58;;;;;;;9.38;5.15;;;-1.70;99.90;;;;;;4917641;29;20032;-71
2023/01/29 05:55:24;;;;;;;9.32;5.60;;;-1.70;99.90;;;;;;4917712;29;20055;-71
2023/01/29 05:57:49;;;;;;;9.35;4.72;;;-1.50;99.90;;;;;;4917587;29;20450;-71
2023/01/29 06:00:15;;;;;;;9.57;4.68;;;-1.50;99.90;;;;;;4917843;29;20461;-69
2023/01/29 06:02:41;;;;;;;10.98;5.28;;;-1.70;99.90;;;;;;4917381;29;20039;-69
2023/01/29 06:05:07;;;;;;;6.32;4.45;;;-1.70;99.90;;;;;;4917516;29;20039;-69
2023/01/29 06:07:33;;;;;;;7.50;4.63;;;-1.80;99.90;;;;;;4900669;29;20095;-72
2023/01/29 06:09:58;;;;;;;9.02;5.28;;;-1.80;99.90;;;;;;4900548;29;20024;-73
2023/01/29 06:12:26;;;;;;;10.38;6.20;;;-1.80;99.90;;;;;;4917710;29;20099;-73
2023/01/29 06:14:51;;;;;;;11.32;6.05;;;-1.80;99.90;;;;;;4901880;29;20036;-73
2023/01/29 06:17:17;;;;;;;9.27;5.47;;;-1.80;99.90;;;;;;4904343;29;20071;-73
2023/01/29 06:19:43;;;;;;;8.50;5.30;;;-1.80;99.90;;;;;;4921228;29;20073;-74
2023/01/29 06:22:08;;;;;;;10.85;6.25;;;-1.70;99.90;;;;;;4921292;29;20025;-73
2023/01/29 06:24:34;;;;;;;9.55;5.78;;;-1.70;99.90;;;;;;4921167;29;20036;-73
2023/01/29 06:27:00;;;;;;;10.15;5.60;;;-1.70;99.90;;;;;;4921387;29;20036;-73
2023/01/29 06:29:25;;;;;;;9.77;5.25;;;-1.70;99.90;;;;;;4903834;29;20028;-73
2023/01/29 06:31:51;;;;;;;7.88;4.88;;;-1.80;99.90;;;;;;4920715;29;20107;-73
2023/01/29 06:34:17;;;;;;;8.30;5.13;;;-1.80;99.90;;;;;;4903991;29;20036;-73
2023/01/29 06:36:42;;;;;;;9.27;5.30;;;-1.70;99.90;;;;;;4920708;29;20032;-74
2023/01/29 06:39:08;;;;;;;8.85;5.93;;;-1.80;99.90;;;;;;4903912;29;20474;-73
2023/01/29 06:41:34;;;;;;;10.10;5.82;;;-1.80;99.90;;;;;;4920616;29;20030;-73
2023/01/29 06:43:59;;;;;;;8.93;5.18;;;-1.80;99.90;;;;;;4903849;29;20478;-74
2023/01/29 06:46:25;;;;;;;8.88;5.22;;;-1.80;99.90;;;;;;4921040;29;20040;-74
2023/01/29 06:48:51;;;;;;;8.07;4.95;;;-1.80;99.90;;;;;;4925043;29;20028;-73
2023/01/29 06:51:17;;;;;;;8.57;5.10;;;-1.90;99.90;;;;;;4925108;29;20514;-75
2023/01/29 06:53:42;;;;;;;9.60;5.47;;;-1.90;99.90;;;;;;4923834;29;20406;-74
2023/01/29 06:56:08;;;;;;;13.18;5.07;;;-2.00;99.90;;;;;;4906052;29;20474;-73
2023/01/29 06:58:37;;;;;;;8.95;5.18;;;-1.90;99.90;;;;;;4921198;29;20478;-74
2023/01/29 07:01:12;;;;;;;9.75;5.63;;;-2.00;99.90;;;;;;4920733;29;20442;-71
2023/01/29 07:03:40;;;;;;;13.00;5.28;;;-2.00;99.90;;;;;;4903381;29;20060;-70
2023/01/29 07:06:07;;;;;;;9.25;5.03;;;-2.00;99.90;;;;;;4903453;29;20359;-71
2023/01/29 07:08:36;;;;;;;8.23;5.10;;;-2.10;99.90;;;;;;4920579;29;20031;-70
2023/01/29 07:11:02;;;;;;;8.48;5.22;;;-2.10;99.90;;;;;;4903736;29;20032;-70
2023/01/29 07:13:28;;;;;;;8.68;5.20;;;-2.10;99.90;;;;;;4920775;29;20430;-70
2023/01/29 07:15:57;;;;;;;8.10;5.05;;;-2.10;99.90;;;;;;4903894;29;20032;-70
2023/01/29 07:18:22;;;;;;;8.25;5.50;;;-2.10;99.90;;;;;;4903210;29;20393;-70
2023/01/29 07:20:48;;;;;;;10.57;5.53;;;-1.80;99.90;;;;;;4920080;29;20111;-70
2023/01/29 07:23:14;;;;;;;8.93;5.15;;;-2.00;99.90;;;;;;4919971;29;20024;-69
2023/01/29 07:25:40;;;;;;;7.03;4.97;;;-2.10;99.90;;;;;;4903355;29;20032;-71
2023/01/29 07:28:06;;;;;;;11.48;5.65;;;-2.10;99.90;;;;;;4919897;29;20032;-70
2023/01/29 07:30:32;;;;;;;11.50;6.15;;;-2.10;99.90;;;;;;4920073;29;20032;-71
2023/01/29 07:33:07;;;;;;;10.10;5.38;;;-2.00;99.90;;;;;;4920040;29;20028;-73
2023/01/29 07:35:39;;;;;;;12.52;5.70;;;-1.50;99.90;;;;;;4920138;29;20366;-73
2023/01/29 07:38:06;;;;;;;10.00;5.72;;;-1.80;99.90;;;;;;4903079;29;20437;-73
2023/01/29 07:40:32;;;;;;;10.52;6.20;;;-1.80;99.90;;;;;;4919701;29;20107;-73
2023/01/29 07:43:04;;;;;;;11.10;6.35;;;-1.70;99.90;;;;;;4902871;29;20032;-73
2023/01/29 07:45:30;;;;;;;8.30;5.22;;;-1.80;99.90;;;;;;4919785;29;20051;-71
2023/01/29 07:47:56;;;;;;;8.88;5.35;;;-1.80;99.90;;;;;;4920050;29;20028;-71
2023/01/29 07:50:24;;;;;;;9.70;5.93;;;-1.70;99.90;;;;;;4919819;29;20378;-67
2023/01/29 07:52:49;;;;;;;10.75;6.43;;;-1.30;99.90;;;;;;4920475;29;20513;-71
2023/01/29 07:55:16;;;;;;;8.90;5.75;;;-1.50;99.90;;;;;;4920509;29;20032;-70
2023/01/29 07:57:41;;;;;;;9.48;5.65;;;-1.70;99.90;;;;;;4919835;29;20031;-71
2023/01/29 08:00:09;;;;;;;10.18;6.20;;;-1.70;99.90;;;;;;4919657;29;20028;-71
2023/01/29 08:02:34;;;;;;;9.82;6.07;;;-1.70;99.90;;;;;;4902297;29;20123;-71
2023/01/29 08:05:00;;;;;;;10.43;6.38;;;-1.70;99.90;;;;;;4919698;29;20119;-72
2023/01/29 08:07:25;;;;;;;13.48;7.03;;;-1.60;99.90;;;;;;4902566;29;20060;-71
2023/01/29 08:09:51;;;;;;;9.23;6.47;;;-1.60;99.90;;;;;;4902353;29;20024;-71
2023/01/29 08:12:17;;;;;;;10.32;6.25;;;-1.20;99.90;;;;;;4902453;29;20052;-71
2023/01/29 08:14:44;;;;;;;10.68;6.18;;;-1.50;99.90;;;;;;4911560;29;20070;-71
2023/01/29 08:17:10;;;;;;;10.40;6.30;;;-1.50;99.90;;;;;;4901617;29;20035;-72
2023/01/29 08:19:36;;;;;;;9.85;6.35;;;-1.10;99.90;;;;;;4918951;29;20470;-72
2023/01/29 08:22:03;;;;;;;10.00;6.30;;;-1.30;99.90;;;;;;4902106;29;20035;-72
2023/01/29 08:24:29;;;;;;;8.68;5.90;;;-1.40;99.90;;;;;;4918834;29;20088;-72
2023/01/29 08:26:54;;;;;;;8.88;5.43;;;-1.40;99.90;;;;;;4901984;29;20029;-72
2023/01/29 08:29:20;;;;;;;10.32;5.70;;;-1.40;99.90;;;;;;4901961;29;20035;-72
2023/01/29 08:31:46;;;;;;;12.43;7.38;;;-1.40;99.90;;;;;;4902120;29;20035;-72
2023/01/29 08:34:11;;;;;;;9.95;6.25;;;-1.40;99.90;;;;;;4901961;29;20028;-72
2023/01/29 08:36:37;;;;;;;8.55;5.97;;;-1.30;99.90;;;;;;4918446;29;20529;-72
2023/01/29 08:39:02;;;;;;;9.38;5.95;;;-1.30;99.90;;;;;;4901565;29;20386;-72
2023/01/29 08:41:28;;;;;;;9.45;6.13;;;-1.20;99.90;;;;;;4902120;29;20168;-72
2023/01/29 08:43:54;;;;;;;10.45;6.40;;;-1.30;99.90;;;;;;4901816;29;20036;-72
2023/01/29 08:46:19;;;;;;;9.07;6.20;;;-1.30;99.90;;;;;;4901675;29;20127;-72
2023/01/29 08:48:45;;;;;;;8.10;5.43;;;-1.40;99.90;;;;;;4901598;29;20031;-72
2023/01/29 08:51:11;;;;;;;9.30;6.07;;;-1.40;99.90;;;;;;4918755;29;20035;-71
2023/01/29 08:53:37;;;;;;;10.23;6.35;;;-1.40;99.90;;;;;;4901773;29;20031;-71
2023/01/29 08:56:03;;;;;;;10.70;7.20;;;-1.40;99.90;;;;;;4918778;29;20374;-71
2023/01/29 08:58:28;;;;;;;12.43;7.13;;;-1.30;99.90;;;;;;4918521;29;20036;-71
2023/01/29 09:00:54;;;;;;;10.75;5.82;;;-1.20;99.90;;;;;;4918477;29;20075;-68
2023/01/29 09:03:19;;;;;;;10.55;6.20;;;-1.10;99.90;;;;;;4918324;29;20052;-69
2023/01/29 09:05:45;;;;;;;12.40;6.40;;;-1.00;99.90;;;;;;4918271;29;20040;-68
2023/01/29 09:08:11;;;;;;;12.25;6.80;;;-1.10;99.90;;;;;;4918378;29;20066;-67
2023/01/29 09:10:37;;;;;;;9.07;6.28;;;-1.00;99.90;;;;;;4917899;29;20035;-67
2023/01/29 09:13:03;;;;;;;9.88;6.03;;;-0.90;99.90;;;;;;4918143;29;20024;-69
2023/01/29 09:15:29;;;;;;;8.85;5.47;;;-0.80;99.90;;;;;;4918176;29;20063;-72
2023/01/29 09:17:55;;;;;;;9.80;5.72;;;-0.60;99.90;;;;;;4918103;29;20039;-71
2023/01/29 09:20:21;;;;;;;9.77;6.75;;;-0.60;99.90;;;;;;4901233;29;20024;-69
2023/01/29 09:22:47;;;;;;;11.05;6.55;;;-0.50;99.90;;;;;;4917855;29;20363;-69
2023/01/29 09:25:13;;;;;;;10.57;6.85;;;-0.40;99.90;;;;;;4917920;29;20059;-70
2023/01/29 09:27:38;;;;;;;11.63;6.57;;;-0.30;99.90;;;;;;4901078;29;20040;-69
2023/01/29 09:30:05;;;;;;;11.63;6.90;;;-0.20;99.90;;;;;;4900996;29;20039;-68
2023/01/29 09:32:32;;;;;;;11.27;7.38;;;0.00;99.90;;;;;;4918093;29;20110;-69
2023/01/29 09:34:58;;;;;;;11.70;6.88;;;0.20;99.90;;;;;;4917862;29;20486;-68
2023/01/29 09:37:24;;;;;;;11.75;7.00;;;0.50;99.90;;;;;;4901242;29;20119;-64
2023/01/29 09:39:49;;;;;;;11.93;6.82;;;1.00;99.90;;;;;;4901753;29;20107;-63
2023/01/29 09:42:24;;;;;;;9.77;6.65;;;1.30;99.90;;;;;;4918089;29;20044;-67
2023/01/29 09:45:02;;;;;;;9.93;6.75;;;1.50;99.90;;;;;;4901481;29;20039;-68
2023/01/29 09:47:30;;;;;;;11.48;7.50;;;1.10;99.90;;;;;;4901454;29;20024;-69
2023/01/29 09:50:00;;;;;;;9.77;6.00;;;0.90;99.90;;;;;;4901562;29;20463;-70
2023/01/29 09:52:31;;;;;;;11.30;6.80;;;0.60;99.90;;;;;;4900997;29;20485;-67
2023/01/29 09:55:11;;;;;;;10.27;6.15;;;0.40;99.90;;;;;;4917976;29;20032;-69
2023/01/29 09:57:53;;;;;;;10.18;5.40;;;0.30;99.90;;;;;;4900433;29;20083;-68
2023/01/29 10:00:47;;;;;;;9.52;6.47;;;0.20;99.90;;;;;;4918142;29;20063;-69
2023/01/29 10:03:24;;;;;;;9.00;6.30;;;0.60;99.90;;;;;;4900299;29;20592;-68
2023/01/29 10:05:53;;;;;;;9.88;6.88;;;0.90;99.90;;;;;;4902196;29;20143;-67
2023/01/29 10:08:33;;;;;;;10.55;6.72;;;1.60;99.90;;;;;;4918329;29;20032;-68
2023/01/29 10:11:15;;;;;;;7.72;5.88;;;2.60;99.90;;;;;;4918541;29;20035;-67
2023/01/29 10:14:01;;;;;;;9.23;6.40;;;2.80;99.90;;;;;;4902089;29;20036;-67
2023/01/29 10:16:52;;;;;;;10.35;6.88;;;3.00;99.90;;;;;;4918726;29;20036;-67
2023/01/29 10:19:42;;;;;;;10.52;6.30;;;3.50;99.90;;;;;;4917971;29;20028;-67
2023/01/29 10:22:23;;;;;;;7.95;6.00;;;4.20;97.30;;;;;;4918189;29;20032;-67
2023/01/29 10:24:56;;;;;;;8.80;6.20;;;4.50;95.30;;;;;;4900384;29;20052;-67
2023/01/29 10:27:25;;;;;;;8.35;6.45;;;4.80;94.80;;;;;;4900289;29;20028;-67
2023/01/29 10:29:53;;;;;;;11.88;7.97;;;4.60;93.60;;;;;;4900453;29;20025;-66
2023/01/29 10:32:23;;;;;;;8.88;6.22;;;4.90;91.70;;;;;;4900406;29;20123;-65
2023/01/29 10:34:55;;;;;;;9.20;7.32;;;4.40;90.10;;;;;;4917411;29;20032;-66
2023/01/29 10:37:41;;;;;;;11.55;7.22;;;3.90;92.70;;;;;;4917611;29;20024;-65
2023/01/29 10:40:42;;;;;;;11.82;7.68;;;4.20;93.60;;;;;;4899783;29;20028;-64
2023/01/29 10:43:15;;;;;;;9.90;6.78;;;4.10;92.50;;;;;;4914393;29;20040;-64
2023/01/29 10:45:59;;;;;;;13.32;7.85;;;3.80;91.90;;;;;;4917181;29;20119;-64
2023/01/29 10:48:35;;;;;;;10.40;7.25;;;3.30;93.20;;;;;;4917250;29;20470;-64
2023/01/29 10:51:15;;;;;;;9.40;6.68;;;3.10;94.30;;;;;;4917394;29;20048;-64
2023/01/29 10:54:09;;;;;;;12.48;7.38;;;3.60;97.40;;;;;;4917403;29;20040;-63
2023/01/29 10:56:53;;;;;;;9.85;7.32;;;3.60;93.30;;;;;;4877359;29;20482;-64
2023/01/29 11:00:06;;;;;;;8.25;6.47;;;3.40;94.00;;;;;;4917278;29;20028;-63
2023/01/29 11:02:33;;;;;;;11.70;6.65;;;2.80;94.50;;;;;;4888947;29;20087;-63
2023/01/29 11:04:58;;;;;;;9.45;6.80;;;2.30;96.60;;;;;;4920519;29;20039;-64
2023/01/29 11:07:26;;;;;;;11.93;7.30;;;1.80;97.90;;;;;;4904730;29;20024;-67
2023/01/29 11:10:13;;;;;;;9.80;7.05;;;1.70;99.90;;;;;;4923280;29;20036;-63
2023/01/29 11:12:42;;;;;;;10.40;6.90;;;1.50;99.90;;;;;;4922509;29;20035;-63
2023/01/29 11:15:37;;;;;;;11.35;7.65;;;1.20;99.90;;;;;;4922012;29;20202;-63
2023/01/29 11:18:14;;;;;;;12.35;7.07;;;1.00;99.90;;;;;;4917152;29;20067;-63
2023/01/29 11:20:44;;;;;;;13.55;7.45;;;1.10;99.90;;;;;;4920300;29;20032;-63
2023/01/29 11:23:29;;;;;;;11.02;6.75;;;1.50;99.90;;;;;;4903754;29;20088;-63
2023/01/29 11:25:57;;;;;;;10.05;7.03;;;2.20;99.90;;;;;;4903209;29;20067;-64
2023/01/29 11:28:43;;;;;;;11.20;6.82;;;2.50;98.60;;;;;;4920053;29;20028;-64
2023/01/29 11:31:18;;;;;;;9.50;6.95;;;2.40;99.90;;;;;;4919853;29;20043;-63
2023/01/29 11:33:45;;;;;;;11.35;7.07;;;2.70;99.80;;;;;;4903048;29;20036;-64
2023/01/29 11:36:39;;;;;;;11.60;7.20;;;2.60;97.90;;;;;;4902929;29;20028;-64
2023/01/29 11:39:21;;;;;;;9.40;7.05;;;2.80;98.00;;;;;;4902911;29;20065;-65
2023/01/29 11:42:00;;;;;;;13.00;7.90;;;3.30;97.40;;;;;;4920083;29;20028;-66
2023/01/29 11:44:41;;;;;;;9.75;6.80;;;4.40;96.70;;;;;;4902798;29;20490;-65
2023/01/29 11:47:13;;;;;;;11.07;7.78;;;5.00;93.40;;;;;;4903271;29;20136;-65
2023/01/29 11:49:44;;;;;;;11.55;7.93;;;5.70;90.70;;;;;;4919747;29;20427;-65
2023/01/29 11:52:12;;;;;;;13.50;8.20;;;5.80;85.70;;;;;;4902729;29;20039;-65
2023/01/29 11:54:44;;;;;;;10.98;8.30;;;5.30;86.70;;;;;;4902584;29;20127;-66
2023/01/29 11:57:29;;;;;;;14.65;8.55;;;4.70;87.50;;;;;;4919934;29;20024;-66
2023/01/29 11:59:59;;;;;;;13.40;8.60;;;3.90;90.60;;;;;;4902561;29;20039;-66
2023/01/29 12:02:40;;;;;;;12.45;8.45;;;3.30;93.60;;;;;;4903196;29;20028;-66
2023/01/29 12:05:16;;;;;;;14.00;9.15;;;3.60;93.10;;;;;;4885059;29;20072;-64
2023/01/29 12:07:48;;;;;;;13.43;8.55;;;4.10;92.90;;;;;;4919281;29;20489;-64
2023/01/29 12:10:29;;;;;;;14.55;9.20;;;4.60;91.40;;;;;;4918809;29;20028;-65
2023/01/29 12:13:27;;;;;;;12.27;8.50;;;4.70;91.50;;;;;;4917780;29;20064;-65
2023/01/29 12:16:25;;;;;;;12.02;8.15;;;5.10;90.50;;;;;;4878138;29;20041;-65
2023/01/29 12:19:04;;;;;;;11.68;8.65;;;6.00;88.80;;;;;;4899409;29;20043;-65
2023/01/29 12:21:54;;;;;;;11.85;8.55;;;6.60;81.60;;;;;;4883707;29;20085;-64
2023/01/29 12:24:42;;;;;;;11.90;8.98;;;6.40;80.00;;;;;;4900182;29;20036;-64
2023/01/29 12:27:23;;;;;;;13.60;9.35;;;6.40;79.90;;;;;;4900263;29;20029;-64
2023/01/29 12:29:56;;;;;;;12.05;9.00;;;6.00;79.70;;;;;;4900235;29;20044;-64
2023/01/29 12:32:57;;;;;;;11.50;9.05;;;6.20;81.20;;;;;;4900408;29;20459;-65
2023/01/29 12:35:37;;;;;;;14.18;9.10;;;6.40;80.00;;;;;;4899330;29;20139;-64
2023/01/29 12:38:03;;;;;;;13.52;8.98;;;6.50;78.00;;;;;;4899952;29;20033;-64
2023/01/29 12:40:44;;;;;;;12.90;8.98;;;6.30;77.60;;;;;;4883227;29;20028;-65
2023/01/29 12:43:16;;;;;;;13.50;9.07;;;5.80;80.50;;;;;;4899867;29;20028;-65
2023/01/29 12:45:46;;;;;;;13.48;8.95;;;5.60;81.70;;;;;;4899895;29;20088;-65
2023/01/29 12:48:20;;;;;;;13.45;9.27;;;5.10;83.10;;;;;;4900032;29;20033;-66
2023/01/29 12:50:48;;;;;;;13.45;8.75;;;5.20;84.30;;;;;;4899887;29;20055;-66
2023/01/29 12:53:13;;;;;;;14.30;9.38;;;5.30;83.80;;;;;;4899564;29;20029;-66
2023/01/29 12:55:47;;;;;;;15.88;9.50;;;5.00;84.70;;;;;;4882814;29;20351;-66
2023/01/29 12:58:21;;;;;;;12.88;9.10;;;4.60;87.40;;;;;;4899632;29;20047;-66
2023/01/29 13:00:51;;;;;;;14.85;9.40;;;4.30;87.60;;;;;;4899903;29;20029;-67
2023/01/29 13:03:24;;;;;;;15.05;9.05;;;4.30;89.20;;;;;;4899734;29;20136;-66
2023/01/29 13:08:59;;;;;;;15.05;9.35;;;4.30;89.40;;;;;;4899645;29;20180;-69
2023/01/29 13:11:37;;;;;;;14.32;9.80;;;3.80;90.60;;;;;;4899719;29;20085;-67
2023/01/29 13:14:20;;;;;;;12.30;7.40;;;3.50;92.00;;;;;;4899980;29;20106;-67
2023/01/29 13:16:49;;;;;;;15.75;9.43;;;3.20;93.80;;;;;;4900574;29;20502;-67
2023/01/29 13:19:18;;;;;;;14.90;9.75;;;3.60;94.20;;;;;;4900685;29;20020;-68
2023/01/29 13:21:44;;;;;;;14.50;9.45;;;3.70;92.10;;;;;;4912582;29;20028;-68
2023/01/29 13:24:16;;;;;;;15.50;10.30;;;3.50;92.70;;;;;;4917605;29;20063;-67
2023/01/29 13:26:47;;;;;;;16.13;9.73;;;3.50;94.00;;;;;;4900874;29;20100;-68
2023/01/29 13:29:28;;;;;;;14.73;9.65;;;3.80;93.40;;;;;;4918042;29;20051;-67
2023/01/29 13:31:59;;;;;;;14.85;9.88;;;3.80;93.50;;;;;;4901007;29;20490;-67
2023/01/29 13:34:30;;;;;;;16.58;10.25;;;3.50;93.40;;;;;;4917986;29;20106;-67
2023/01/29 13:37:36;;;;;;;13.45;9.35;;;3.30;95.10;;;;;;4918633;29;20039;-72
2023/01/29 13:40:05;;;;;;;15.10;8.88;;;3.70;94.70;;;;;;4901601;29;20028;-71